createdAt,value
2023-01-03T00:01:28.151Z,101009.00
2023-01-03T00:03:56.808Z,101008.00
2023-01-03T00:06:25.894Z,101014.00
2023-01-03T00:08:54.545Z,101021.00
2023-01-03T00:11:44.616Z,101023.00
2023-01-03T00:14:14.579Z,101025.00
2023-01-03T00:16:42.068Z,101021.00
2023-01-03T00:19:10.493Z,101029.00
2023-01-03T00:21:38.260Z,101036.00
2023-01-03T00:24:06.252Z,101033.00
2023-01-03T00:26:33.814Z,101034.00
2023-01-03T00:29:01.829Z,101041.00
2023-01-03T00:31:29.884Z,101039.00
2023-01-03T00:33:57.252Z,101045.00
2023-01-03T00:36:24.529Z,101040.00
2023-01-03T00:38:51.794Z,101047.00
2023-01-03T00:41:20.170Z,101044.00
2023-01-03T00:43:49.732Z,101058.00
2023-01-03T00:46:20.946Z,101049.00
2023-01-03T00:48:49.116Z,101053.00
2023-01-03T00:51:19.575Z,101057.00
2023-01-03T00:53:48.308Z,101049.00
2023-01-03T00:56:17.321Z,101063.00
2023-01-03T00:58:45.337Z,101069.00
2023-01-03T01:01:15.318Z,101064.00
2023-01-03T01:03:44.855Z,101071.00
2023-01-03T01:06:15.041Z,101076.00
2023-01-03T01:08:42.905Z,101073.00
2023-01-03T01:11:10.755Z,101073.00
2023-01-03T01:13:38.963Z,101085.00
2023-01-03T01:16:08.452Z,101087.00
2023-01-03T01:18:36.660Z,101091.00
2023-01-03T01:21:05.907Z,101099.00
2023-01-03T01:23:35.860Z,101095.00
2023-01-03T01:26:03.896Z,101104.00
2023-01-03T01:28:32.356Z,101113.00
2023-01-03T01:31:00.520Z,101116.00
2023-01-03T01:33:28.494Z,101113.00
2023-01-03T01:35:55.804Z,101127.00
2023-01-03T01:38:23.122Z,101119.00
2023-01-03T01:40:51.321Z,101124.00
2023-01-03T01:43:38.891Z,101128.00
2023-01-03T01:46:15.329Z,101134.00
2023-01-03T01:48:43.007Z,101139.00
2023-01-03T01:51:11.881Z,101139.00
2023-01-03T01:53:42.185Z,101135.00
2023-01-03T01:56:14.498Z,101145.00
2023-01-03T01:58:44.445Z,101147.00
2023-01-03T02:01:14.922Z,101148.00
2023-01-03T02:03:45.025Z,101147.00
2023-01-03T02:06:15.215Z,101150.00
2023-01-03T02:08:42.598Z,101156.00
2023-01-03T02:11:23.781Z,101149.00
2023-01-03T02:14:00.091Z,101157.00
2023-01-03T02:16:47.770Z,101158.00
2023-01-03T02:19:39.280Z,101157.00
2023-01-03T02:22:45.866Z,101158.00
2023-01-03T02:25:38.705Z,101164.00
2023-01-03T02:28:44.957Z,101167.00
2023-01-03T02:31:16.784Z,101163.00
2023-01-03T02:33:54.821Z,101163.00
2023-01-03T02:36:31.586Z,101165.00
2023-01-03T02:39:05.814Z,101168.00
2023-01-03T02:41:41.085Z,101169.00
2023-01-03T02:44:14.892Z,101170.00
2023-01-03T02:46:47.006Z,101164.00
2023-01-03T02:49:20.345Z,101169.00
2023-01-03T02:51:50.543Z,101172.00
2023-01-03T02:54:23.057Z,101161.00
2023-01-03T02:56:55.847Z,101171.00
2023-01-03T02:59:29.791Z,101162.00
2023-01-03T03:02:00.401Z,101165.00
2023-01-03T03:04:28.912Z,101182.00
2023-01-03T03:07:01.517Z,101172.00
2023-01-03T03:09:29.540Z,101171.00
2023-01-03T03:12:23.350Z,101170.00
2023-01-03T03:14:52.679Z,101186.00
2023-01-03T03:17:27.868Z,101183.00
2023-01-03T03:20:15.314Z,101183.00
2023-01-03T03:23:05.641Z,101190.00
2023-01-03T03:25:35.905Z,101181.00
2023-01-03T03:28:25.120Z,101178.00
2023-01-03T03:30:56.252Z,101183.00
2023-01-03T03:33:26.188Z,101180.00
2023-01-03T03:35:58.447Z,101186.00
2023-01-03T03:38:33.116Z,101187.00
2023-01-03T03:41:27.473Z,101203.00
2023-01-03T03:44:20.650Z,101203.00
2023-01-03T03:46:55.214Z,101211.00
2023-01-03T03:49:38.849Z,101202.00
2023-01-03T03:52:09.332Z,101213.00
2023-01-03T03:54:39.751Z,101217.00
2023-01-03T03:57:12.360Z,101208.00
2023-01-03T03:59:41.217Z,101211.00
2023-01-03T04:02:10.373Z,101216.00
2023-01-03T04:04:42.854Z,101212.00
2023-01-03T04:07:10.200Z,101215.00
2023-01-03T04:09:37.455Z,101215.00
2023-01-03T04:12:05.085Z,101217.00
2023-01-03T04:14:32.697Z,101216.00
2023-01-03T04:17:00.003Z,101224.00
2023-01-03T04:19:27.479Z,101229.00
2023-01-03T04:21:55.377Z,101237.00
2023-01-03T04:24:22.714Z,101244.00
2023-01-03T04:26:49.945Z,101241.00
2023-01-03T04:29:17.392Z,101242.00
2023-01-03T04:31:44.713Z,101251.00
2023-01-03T04:34:11.993Z,101264.00
2023-01-03T04:36:39.217Z,101259.00
2023-01-03T04:39:07.115Z,101258.00
2023-01-03T04:41:34.353Z,101258.00
2023-01-03T04:44:01.341Z,101256.00
2023-01-03T04:46:29.235Z,101253.00
2023-01-03T04:48:56.556Z,101271.00
2023-01-03T04:51:23.986Z,101266.00
2023-01-03T04:53:51.222Z,101265.00
2023-01-03T04:56:23.373Z,101270.00
2023-01-03T04:58:50.598Z,101270.00
2023-01-03T05:01:18.001Z,101278.00
2023-01-03T05:03:45.349Z,101272.00
2023-01-03T05:06:12.954Z,101275.00
2023-01-03T05:08:40.289Z,101289.00
2023-01-03T05:11:07.919Z,101280.00
2023-01-03T05:13:35.947Z,101287.00
2023-01-03T05:16:07.794Z,101284.00
2023-01-03T05:18:35.526Z,101299.00
2023-01-03T05:21:24.903Z,101301.00
2023-01-03T05:24:10.473Z,101300.00
2023-01-03T05:26:40.590Z,101306.00
2023-01-03T05:29:09.812Z,101309.00
2023-01-03T05:31:37.125Z,101304.00
2023-01-03T05:34:04.579Z,101306.00
2023-01-03T05:36:34.931Z,101313.00
2023-01-03T05:39:02.506Z,101308.00
2023-01-03T05:41:59.310Z,101314.00
2023-01-03T05:44:27.863Z,101317.00
2023-01-03T05:46:55.211Z,101327.00
2023-01-03T05:49:22.445Z,101323.00
2023-01-03T05:51:49.927Z,101321.00
2023-01-03T05:54:18.922Z,101326.00
2023-01-03T05:56:46.214Z,101326.00
2023-01-03T05:59:13.696Z,101326.00
2023-01-03T06:01:41.664Z,101326.00
2023-01-03T06:04:09.024Z,101329.00
2023-01-03T06:06:36.365Z,101326.00
2023-01-03T06:09:06.739Z,101327.00
2023-01-03T06:11:34.311Z,101338.00
2023-01-03T06:14:02.018Z,101332.00
2023-01-03T06:16:48.305Z,101349.00
2023-01-03T06:19:18.574Z,101336.00
2023-01-03T06:21:47.156Z,101332.00
2023-01-03T06:24:15.933Z,101340.00
2023-01-03T06:26:44.158Z,101346.00
2023-01-03T06:29:12.305Z,101350.00
2023-01-03T06:31:41.046Z,101341.00
2023-01-03T06:34:09.265Z,101337.00
2023-01-03T06:36:44.698Z,101341.00
2023-01-03T06:39:13.979Z,101345.00
2023-01-03T06:41:44.410Z,101344.00
2023-01-03T06:44:12.830Z,101335.00
2023-01-03T06:46:57.810Z,101358.00
2023-01-03T06:49:44.238Z,101352.00
2023-01-03T06:52:34.715Z,101361.00
2023-01-03T06:55:03.754Z,101366.00
2023-01-03T06:57:31.342Z,101366.00
2023-01-03T07:00:00.418Z,101369.00
2023-01-03T07:02:29.609Z,101376.00
2023-01-03T07:04:58.563Z,101361.00
2023-01-03T07:07:29.231Z,101376.00
2023-01-03T07:09:57.664Z,101372.00
2023-01-03T07:12:45.874Z,101379.00
2023-01-03T07:15:14.148Z,101383.00
2023-01-03T07:17:42.194Z,101382.00
2023-01-03T07:20:10.225Z,101382.00
2023-01-03T07:22:40.132Z,101385.00
2023-01-03T07:25:09.072Z,101386.00
2023-01-03T07:27:36.828Z,101385.00
2023-01-03T07:30:06.390Z,101392.00
2023-01-03T07:32:35.183Z,101389.00
2023-01-03T07:35:05.500Z,101390.00
2023-01-03T07:37:34.483Z,101400.00
2023-01-03T07:40:07.420Z,101388.00
2023-01-03T07:42:52.887Z,101399.00
2023-01-03T07:45:21.143Z,101396.00
2023-01-03T07:47:49.600Z,101401.00
2023-01-03T07:50:20.679Z,101403.00
2023-01-03T07:52:48.953Z,101404.00
2023-01-03T07:55:18.789Z,101404.00
2023-01-03T07:57:47.944Z,101414.00
2023-01-03T08:00:17.247Z,101414.00
2023-01-03T08:02:46.140Z,101423.00
2023-01-03T08:05:14.938Z,101426.00
2023-01-03T08:07:42.369Z,101426.00
2023-01-03T08:10:27.920Z,101422.00
2023-01-03T08:13:13.862Z,101420.00
2023-01-03T08:15:44.045Z,101432.00
2023-01-03T08:18:11.407Z,101437.00
2023-01-03T08:20:39.448Z,101424.00
2023-01-03T08:23:06.869Z,101435.00
2023-01-03T08:25:34.109Z,101437.00
2023-01-03T08:28:02.535Z,101444.00
2023-01-03T08:30:30.720Z,101430.00
2023-01-03T08:33:02.741Z,101436.00
2023-01-03T08:35:33.737Z,101431.00
2023-01-03T08:38:04.163Z,101437.00
2023-01-03T08:40:41.409Z,101452.00
2023-01-03T08:43:13.406Z,101446.00
2023-01-03T08:45:40.673Z,101448.00
2023-01-03T08:48:09.995Z,101444.00
2023-01-03T08:50:37.287Z,101442.00
2023-01-03T08:53:05.218Z,101439.00
2023-01-03T08:55:32.803Z,101445.00
2023-01-03T08:58:00.328Z,101452.00
2023-01-03T09:00:28.837Z,101459.00
2023-01-03T09:02:59.688Z,101462.00
2023-01-03T09:05:27.694Z,101471.00
2023-01-03T09:07:55.775Z,101457.00
2023-01-03T09:10:23.187Z,101472.00
2023-01-03T09:12:51.189Z,101465.00
2023-01-03T09:15:18.504Z,101471.00
2023-01-03T09:17:48.535Z,101475.00
2023-01-03T09:20:17.437Z,101490.00
2023-01-03T09:22:44.987Z,101483.00
2023-01-03T09:25:12.306Z,101486.00
2023-01-03T09:27:39.965Z,101496.00
2023-01-03T09:30:08.375Z,101487.00
2023-01-03T09:32:35.792Z,101485.00
2023-01-03T09:35:04.918Z,101484.00
2023-01-03T09:37:49.008Z,101472.00
2023-01-03T09:40:19.335Z,101481.00
2023-01-03T09:43:04.907Z,101479.00
2023-01-03T09:45:39.513Z,101481.00
2023-01-03T09:48:08.155Z,101490.00
2023-01-03T09:51:14.113Z,101490.00
2023-01-03T09:53:48.612Z,101490.00
2023-01-03T09:56:34.625Z,101488.00
2023-01-03T09:59:27.813Z,101505.00
2023-01-03T10:02:24.444Z,101495.00
2023-01-03T10:05:09.435Z,101498.00
2023-01-03T10:08:04.567Z,101491.00
2023-01-03T10:10:41.489Z,101496.00
2023-01-03T10:13:20.576Z,101501.00
2023-01-03T10:15:57.900Z,101497.00
2023-01-03T10:18:45.038Z,101493.00
2023-01-03T10:21:20.204Z,101492.00
2023-01-03T10:23:49.464Z,101485.00
2023-01-03T10:26:18.636Z,101492.00
2023-01-03T10:28:47.656Z,101490.00
2023-01-03T10:31:31.436Z,101498.00
2023-01-03T10:33:58.744Z,101482.00
2023-01-03T10:36:26.061Z,101482.00
2023-01-03T10:39:04.908Z,101490.00
2023-01-03T10:41:41.744Z,101482.00
2023-01-03T10:44:24.088Z,101489.00
2023-01-03T10:46:53.962Z,101487.00
2023-01-03T10:49:29.077Z,101481.00
2023-01-03T10:52:00.656Z,101478.00
2023-01-03T10:54:43.726Z,101485.00
2023-01-03T10:57:37.539Z,101483.00
2023-01-03T11:00:22.407Z,101484.00
2023-01-03T11:02:50.740Z,101478.00
2023-01-03T11:05:20.570Z,101479.00
2023-01-03T11:07:53.874Z,101479.00
2023-01-03T11:10:23.454Z,101483.00
2023-01-03T11:12:51.066Z,101479.00
2023-01-03T11:15:23.530Z,101471.00
2023-01-03T11:17:54.733Z,101476.00
2023-01-03T11:20:25.084Z,101473.00
2023-01-03T11:22:59.740Z,101469.00
2023-01-03T11:25:39.381Z,101474.00
2023-01-03T11:28:37.694Z,101465.00
2023-01-03T11:31:11.119Z,101474.00
2023-01-03T11:33:56.067Z,101469.00
2023-01-03T11:36:32.319Z,101458.00
2023-01-03T11:39:18.179Z,101464.00
2023-01-03T11:42:11.352Z,101454.00
2023-01-03T11:45:06.922Z,101453.00
2023-01-03T11:47:44.966Z,101452.00
2023-01-03T11:50:25.484Z,101460.00
2023-01-03T11:53:01.521Z,101465.00
2023-01-03T11:55:45.850Z,101453.00
2023-01-03T11:58:48.047Z,101447.00
2023-01-03T12:01:25.359Z,101459.00
2023-01-03T12:04:31.677Z,101467.00
2023-01-03T12:10:13.587Z,101455.00
2023-01-03T12:13:17.161Z,101458.00
2023-01-03T12:15:50.662Z,101457.00
2023-01-03T12:18:25.919Z,101453.00
2023-01-03T12:20:57.629Z,101448.00
2023-01-03T12:23:34.740Z,101449.00
2023-01-03T12:26:05.081Z,101453.00
2023-01-03T12:28:38.571Z,101441.00
2023-01-03T12:31:16.277Z,101446.00
2023-01-03T12:33:48.648Z,101447.00
2023-01-03T12:36:27.560Z,101443.00
2023-01-03T12:39:06.353Z,101454.00
2023-01-03T12:41:38.442Z,101456.00
2023-01-03T12:44:15.124Z,101447.00
2023-01-03T12:46:50.224Z,101451.00
2023-01-03T12:49:23.502Z,101448.00
2023-01-03T12:51:50.949Z,101452.00
2023-01-03T12:54:30.982Z,101441.00
2023-01-03T12:57:12.005Z,101426.00
2023-01-03T12:59:59.464Z,101430.00
2023-01-03T13:02:53.444Z,101430.00
2023-01-03T13:05:32.927Z,101427.00
2023-01-03T13:08:07.278Z,101427.00
2023-01-03T13:10:37.919Z,101425.00
2023-01-03T13:13:06.871Z,101427.00
2023-01-03T13:15:37.193Z,101421.00
2023-01-03T13:18:36.617Z,101417.00
2023-01-03T13:21:37.296Z,101421.00
2023-01-03T13:24:04.825Z,101433.00
2023-01-03T13:26:32.105Z,101431.00
2023-01-03T13:29:37.845Z,101434.00
2023-01-03T13:32:16.570Z,101433.00
2023-01-03T13:34:44.968Z,101431.00
2023-01-03T13:37:42.275Z,101435.00
2023-01-03T13:40:39.330Z,101435.00
2023-01-03T13:43:17.747Z,101432.00
2023-01-03T13:45:55.406Z,101438.00
2023-01-03T13:48:31.169Z,101421.00
2023-01-03T13:51:37.680Z,101424.00
2023-01-03T13:54:21.777Z,101423.00
2023-01-03T13:57:02.817Z,101441.00
2023-01-03T13:59:41.843Z,101440.00
2023-01-03T14:02:53.112Z,101436.00
2023-01-03T14:05:41.569Z,101437.00
2023-01-03T14:08:30.457Z,101441.00
2023-01-03T14:11:30.313Z,101435.00
2023-01-03T14:14:06.028Z,101439.00
2023-01-03T14:16:45.286Z,101439.00
2023-01-03T14:19:23.087Z,101441.00
2023-01-03T14:21:57.454Z,101431.00
2023-01-03T14:24:26.886Z,101438.00
2023-01-03T14:27:02.777Z,101435.00
2023-01-03T14:29:30.228Z,101441.00
2023-01-03T14:31:59.402Z,101441.00
2023-01-03T14:34:33.949Z,101451.00
2023-01-03T14:37:06.611Z,101441.00
2023-01-03T14:42:03.702Z,101445.00
2023-01-03T14:44:31.627Z,101444.00
2023-01-03T14:47:03.189Z,101439.00
2023-01-03T14:49:38.950Z,101450.00
2023-01-03T14:52:09.030Z,101449.00
2023-01-03T14:54:37.737Z,101452.00
2023-01-03T14:57:06.173Z,101458.00
2023-01-03T14:59:34.496Z,101450.00
2023-01-03T15:02:02.518Z,101464.00
2023-01-03T15:04:29.984Z,101471.00
2023-01-03T15:07:04.810Z,101467.00
2023-01-03T15:09:37.100Z,101467.00
2023-01-03T15:12:06.195Z,101479.00
2023-01-03T15:14:38.230Z,101473.00
2023-01-03T15:17:12.673Z,101481.00
2023-01-03T15:19:47.161Z,101484.00
2023-01-03T15:22:18.617Z,101482.00
2023-01-03T15:24:47.946Z,101486.00
2023-01-03T15:27:42.425Z,101481.00
2023-01-03T15:30:20.034Z,101481.00
2023-01-03T15:32:51.486Z,101481.00
2023-01-03T15:35:20.982Z,101488.00
2023-01-03T15:37:52.379Z,101484.00
2023-01-03T15:40:19.635Z,101491.00
2023-01-03T15:43:21.230Z,101485.00
2023-01-03T15:45:56.367Z,101490.00
2023-01-03T15:48:25.302Z,101490.00
2023-01-03T15:50:55.168Z,101491.00
2023-01-03T15:53:25.752Z,101491.00
2023-01-03T15:55:56.700Z,101500.00
2023-01-03T15:58:26.570Z,101500.00
2023-01-03T16:00:54.064Z,101495.00
2023-01-03T16:03:23.581Z,101511.00
2023-01-03T16:05:50.993Z,101512.00
2023-01-03T16:08:28.699Z,101510.00
2023-01-03T16:10:57.900Z,101503.00
2023-01-03T16:13:27.518Z,101506.00
2023-01-03T16:15:56.257Z,101512.00
2023-01-03T16:18:35.517Z,101507.00
2023-01-03T16:21:04.175Z,101499.00
2023-01-03T16:23:33.632Z,101499.00
2023-01-03T16:26:01.315Z,101516.00
2023-01-03T16:28:29.261Z,101505.00
2023-01-03T16:31:06.798Z,101514.00
2023-01-03T16:33:35.734Z,101507.00
2023-01-03T16:36:04.440Z,101508.00
2023-01-03T16:38:33.343Z,101511.00
2023-01-03T16:41:09.831Z,101505.00
2023-01-03T16:43:37.771Z,101515.00
2023-01-03T16:46:05.446Z,101505.00
2023-01-03T16:48:38.536Z,101500.00
2023-01-03T16:51:06.044Z,101500.00
2023-01-03T16:53:36.770Z,101494.00
2023-01-03T16:56:06.311Z,101504.00
2023-01-03T16:58:33.605Z,101500.00
2023-01-03T17:01:01.613Z,101502.00
2023-01-03T17:03:28.953Z,101510.00
2023-01-03T17:05:56.288Z,101497.00
2023-01-03T17:08:25.056Z,101495.00
2023-01-03T17:10:55.338Z,101495.00
2023-01-03T17:13:29.484Z,101502.00
2023-01-03T17:15:57.901Z,101496.00
2023-01-03T17:18:27.667Z,101501.00
2023-01-03T17:20:57.476Z,101510.00
2023-01-03T17:23:26.430Z,101509.00
2023-01-03T17:25:53.757Z,101508.00
2023-01-03T17:28:22.053Z,101510.00
2023-01-03T17:30:53.618Z,101516.00
2023-01-03T17:33:20.916Z,101516.00
2023-01-03T17:35:49.083Z,101517.00
2023-01-03T17:38:26.438Z,101514.00
2023-01-03T17:40:56.792Z,101526.00
2023-01-03T17:43:25.635Z,101533.00
2023-01-03T17:46:19.083Z,101532.00
2023-01-03T17:49:08.148Z,101526.00
2023-01-03T17:51:37.358Z,101534.00
2023-01-03T17:54:05.192Z,101531.00
2023-01-03T17:56:32.612Z,101533.00
2023-01-03T17:59:00.384Z,101524.00
2023-01-03T18:01:27.835Z,101527.00
2023-01-03T18:03:55.269Z,101528.00
2023-01-03T18:06:25.543Z,101523.00
2023-01-03T18:08:55.766Z,101527.00
2023-01-03T18:11:27.196Z,101542.00
2023-01-03T18:14:15.601Z,101541.00
2023-01-03T18:16:43.712Z,101544.00
2023-01-03T18:19:14.486Z,101530.00
2023-01-03T18:21:41.857Z,101540.00
2023-01-03T18:24:18.456Z,101536.00
2023-01-03T18:26:49.104Z,101526.00
2023-01-03T18:29:17.406Z,101529.00
2023-01-03T18:31:46.140Z,101521.00
2023-01-03T18:34:14.039Z,101533.00
2023-01-03T18:36:44.454Z,101532.00
2023-01-03T18:39:20.433Z,101527.00
2023-01-03T18:41:51.670Z,101527.00
2023-01-03T18:44:25.130Z,101531.00
2023-01-03T18:46:56.948Z,101534.00
2023-01-03T18:49:28.871Z,101543.00
2023-01-03T18:51:58.342Z,101533.00
2023-01-03T18:54:26.689Z,101547.00
2023-01-03T18:57:04.130Z,101548.00
2023-01-03T18:59:33.505Z,101543.00
2023-01-03T19:02:01.681Z,101543.00
2023-01-03T19:04:29.069Z,101541.00
2023-01-03T19:06:56.427Z,101552.00
2023-01-03T19:09:31.376Z,101552.00
2023-01-03T19:12:00.998Z,101529.00
2023-01-03T19:14:43.430Z,101539.00
2023-01-03T19:17:15.568Z,101532.00
2023-01-03T19:19:43.537Z,101534.00
2023-01-03T19:22:22.502Z,101526.00
2023-01-03T19:24:56.355Z,101530.00
2023-01-03T19:27:32.196Z,101526.00
2023-01-03T19:30:02.780Z,101525.00
2023-01-03T19:32:32.805Z,101520.00
2023-01-03T19:35:00.214Z,101530.00
2023-01-03T19:37:28.169Z,101531.00
2023-01-03T19:39:56.254Z,101535.00
2023-01-03T19:42:41.538Z,101527.00
2023-01-03T19:45:20.334Z,101528.00
2023-01-03T19:47:47.766Z,101522.00
2023-01-03T19:50:21.204Z,101528.00
2023-01-03T19:52:48.873Z,101530.00
2023-01-03T19:55:17.328Z,101524.00
2023-01-03T19:57:47.319Z,101519.00
2023-01-03T20:00:20.788Z,101516.00
2023-01-03T20:02:50.972Z,101514.00
2023-01-03T20:05:19.973Z,101520.00
2023-01-03T20:07:48.826Z,101522.00
2023-01-03T20:10:19.427Z,101514.00
2023-01-03T20:12:48.120Z,101515.00
2023-01-03T20:15:19.734Z,101512.00
2023-01-03T20:17:47.011Z,101525.00
2023-01-03T20:20:14.666Z,101520.00
2023-01-03T20:25:31.937Z,101505.00
2023-01-03T20:28:00.242Z,101515.00
2023-01-03T20:30:29.694Z,101504.00
2023-01-03T20:32:57.054Z,101511.00
2023-01-03T20:38:16.106Z,101513.00
2023-01-03T20:40:44.053Z,101505.00
2023-01-03T20:43:13.896Z,101501.00
2023-01-03T20:45:41.714Z,101509.00
2023-01-03T20:48:19.285Z,101497.00
2023-01-03T20:50:50.720Z,101500.00
2023-01-03T20:53:19.875Z,101497.00
2023-01-03T20:55:48.227Z,101509.00
2023-01-03T20:58:18.383Z,101497.00
2023-01-03T21:00:45.872Z,101490.00
2023-01-03T21:03:13.414Z,101506.00
2023-01-03T21:05:40.795Z,101494.00
2023-01-03T21:08:32.808Z,101494.00
2023-01-03T21:11:00.768Z,101507.00
2023-01-03T21:13:28.405Z,101494.00
2023-01-03T21:15:57.260Z,101492.00
2023-01-03T21:18:26.509Z,101493.00
2023-01-03T21:20:53.985Z,101485.00
2023-01-03T21:23:23.348Z,101493.00
2023-01-03T21:25:56.071Z,101486.00
2023-01-03T21:28:30.444Z,101486.00
2023-01-03T21:31:05.051Z,101488.00
2023-01-03T21:33:35.565Z,101488.00
2023-01-03T21:36:03.315Z,101473.00
2023-01-03T21:38:30.600Z,101481.00
2023-01-03T21:40:59.296Z,101485.00
2023-01-03T21:43:32.773Z,101481.00
2023-01-03T21:46:04.725Z,101469.00
2023-01-03T21:48:34.702Z,101472.00
2023-01-03T21:51:11.229Z,101470.00
2023-01-03T21:53:47.770Z,101467.00
2023-01-03T21:56:22.818Z,101462.00
2023-01-03T21:58:53.193Z,101467.00
2023-01-03T22:01:22.413Z,101470.00
2023-01-03T22:04:10.865Z,101474.00
2023-01-03T22:06:38.804Z,101479.00
2023-01-03T22:09:26.176Z,101460.00
2023-01-03T22:11:53.466Z,101461.00
2023-01-03T22:14:21.415Z,101465.00
2023-01-03T22:16:48.709Z,101459.00
2023-01-03T22:19:16.091Z,101460.00
2023-01-03T22:21:43.328Z,101458.00
2023-01-03T22:24:10.598Z,101448.00
2023-01-03T22:26:37.829Z,101459.00
2023-01-03T22:29:05.828Z,101450.00
2023-01-03T22:31:33.795Z,101455.00
2023-01-03T22:34:04.618Z,101454.00
2023-01-03T22:36:32.206Z,101452.00
2023-01-03T22:38:59.439Z,101445.00
2023-01-03T22:41:26.695Z,101446.00
2023-01-03T22:43:54.095Z,101442.00
2023-01-03T22:46:21.404Z,101452.00
2023-01-03T22:48:49.427Z,101445.00
2023-01-03T22:51:16.874Z,101441.00
2023-01-03T22:53:45.345Z,101446.00
2023-01-03T22:56:15.258Z,101456.00
2023-01-03T22:58:43.261Z,101451.00
2023-01-03T23:01:12.356Z,101448.00
2023-01-03T23:03:40.058Z,101448.00
2023-01-03T23:06:10.604Z,101437.00
2023-01-03T23:08:38.737Z,101428.00
2023-01-03T23:11:33.949Z,101428.00
2023-01-03T23:14:03.677Z,101423.00
2023-01-03T23:16:31.684Z,101427.00
2023-01-03T23:19:01.247Z,101428.00
2023-01-03T23:21:29.468Z,101417.00
2023-01-03T23:23:56.774Z,101420.00
2023-01-03T23:26:24.393Z,101409.00
2023-01-03T23:28:55.066Z,101414.00
2023-01-03T23:31:22.731Z,101417.00
2023-01-03T23:33:50.050Z,101411.00
2023-01-03T23:36:17.623Z,101399.00
2023-01-03T23:38:45.724Z,101398.00
2023-01-03T23:41:13.015Z,101406.00
2023-01-03T23:43:40.323Z,101404.00
2023-01-03T23:46:07.703Z,101398.00
2023-01-03T23:48:35.139Z,101393.00
2023-01-03T23:51:03.511Z,101396.00
2023-01-03T23:53:31.035Z,101392.00
2023-01-03T23:56:03.209Z,101378.00
2023-01-03T23:58:30.563Z,101376.00
